Time,TemperatureF,DewpointF,PressureIn,WindDirection,WindDirectionDegrees,WindSpeedMPH,WindSpeedGustMPH,Humidity,HourlyPrecipIn,Conditions,Clouds,dailyrainin,SoftwareType,DateUTC
2013-06-17 00:01:00,78.8,75.0,30.04,SE,129,5.0,-999.0,88,-99.99,,,0.00,weatherlink.com 1.10,2013-06-17 04:01:00,
2013-06-17 00:16:00,78.6,75.0,30.03,SSE,159,4.0,-999.0,88,-99.99,,,0.00,weatherlink.com 1.10,2013-06-17 04:16:00,
2013-06-17 00:31:00,78.6,75.0,30.04,WSW,246,0.0,-999.0,89,-99.99,,,0.00,weatherlink.com 1.10,2013-06-17 04:31:00,
2013-06-17 00:46:00,78.5,75.0,30.03,SSW,196,0.0,-999.0,89,-99.99,,,0.00,weatherlink.com 1.10,2013-06-17 04:46:00,
2013-06-17 01:01:00,78.4,75.0,30.02,South,184,4.0,-999.0,90,-99.99,,,0.00,weatherlink.com 1.10,2013-06-17 05:01:00,
2013-06-17 01:16:00,78.1,75.0,30.02,WSW,238,3.0,-999.0,91,-99.99,,,0.00,weatherlink.com 1.10,2013-06-17 05:16:00,
2013-06-17 01:31:00,78.0,75.0,30.03,SSW,194,0.0,-999.0,91,-99.99,,,0.00,weatherlink.com 1.10,2013-06-17 05:31:00,
2013-06-17 01:46:00,77.8,75.0,30.02,SSW,200,1.0,-999.0,91,-99.99,,,0.00,weatherlink.com 1.10,2013-06-17 05:46:00,
2013-06-17 02:01:00,77.7,75.0,30.01,SSW,199,1.0,-999.0,92,-99.99,,,0.00,weatherlink.com 1.10,2013-06-17 06:01:00,
2013-06-17 02:16:00,77.4,75.0,30.00,West,279,6.0,-999.0,91,-99.99,,,0.00,weatherlink.com 1.10,2013-06-17 06:16:00,
2013-06-17 02:31:00,76.7,74.0,30.01,SW,234,0.0,-999.0,92,-99.99,,,0.00,weatherlink.com 1.10,2013-06-17 06:31:00,
2013-06-17 02:46:00,76.6,75.0,30.00,SW,234,0.0,-999.0,93,-99.99,,,0.00,weatherlink.com 1.10,2013-06-17 06:46:00,
2013-06-17 03:01:00,76.5,74.0,30.00,NE,53,4.0,-999.0,93,-99.99,,,0.00,weatherlink.com 1.10,2013-06-17 07:01:00,
2013-06-17 03:16:00,76.3,75.0,29.98,WSW,252,0.0,-999.0,94,-99.99,,,0.00,weatherlink.com 1.10,2013-06-17 07:16:00,
2013-06-17 03:31:00,75.1,73.0,29.98,South,189,3.0,-999.0,94,-99.99,,,0.00,weatherlink.com 1.10,2013-06-17 07:31:00,
2013-06-17 03:46:00,75.2,73.0,29.98,SSW,206,0.0,-999.0,94,-99.99,,,0.00,weatherlink.com 1.10,2013-06-17 07:46:00,
2013-06-17 04:01:00,75.6,74.0,29.99,ENE,77,3.0,-999.0,94,-99.99,,,0.00,weatherlink.com 1.10,2013-06-17 08:01:00,
2013-06-17 04:16:00,75.9,74.0,29.98,South,190,1.0,-999.0,95,-99.99,,,0.00,weatherlink.com 1.10,2013-06-17 08:16:00,
2013-06-17 04:31:00,76.3,75.0,29.98,SW,219,1.0,-999.0,95,-99.99,,,0.00,weatherlink.com 1.10,2013-06-17 08:31:00,
2013-06-17 04:46:00,76.6,75.0,29.99,SSE,156,5.0,-999.0,95,-99.99,,,0.00,weatherlink.com 1.10,2013-06-17 08:46:00,
2013-06-17 05:01:00,76.6,75.0,29.98,South,180,4.0,-999.0,95,-99.99,,,0.00,weatherlink.com 1.10,2013-06-17 09:01:00,
2013-06-17 05:16:00,76.6,75.0,29.98,SSW,205,1.0,-999.0,95,-99.99,,,0.00,weatherlink.com 1.10,2013-06-17 09:16:00,
2013-06-17 05:31:00,76.3,75.0,29.98,SSW,206,3.0,-999.0,95,-99.99,,,0.00,weatherlink.com 1.10,2013-06-17 09:31:00,
2013-06-17 05:46:00,75.8,74.0,29.98,SW,223,2.0,-999.0,95,-99.99,,,0.00,weatherlink.com 1.10,2013-06-17 09:46:00,
2013-06-17 06:01:00,75.5,74.0,29.98,SW,215,0.0,-999.0,95,-99.99,,,0.00,weatherlink.com 1.10,2013-06-17 10:01:00,
2013-06-17 06:16:00,75.4,74.0,29.98,SW,215,1.0,-999.0,95,-99.99,,,0.00,weatherlink.com 1.10,2013-06-17 10:16:00,
2013-06-17 06:31:00,75.4,74.0,29.98,SW,217,0.0,-999.0,95,-99.99,,,0.00,weatherlink.com 1.10,2013-06-17 10:31:00,
2013-06-17 06:46:00,-999.0,-99.9,29.98,North,-999,-999.0,-999.0,-999,-99.99,,,0.00,weatherlink.com 1.10,2013-06-17 10:46:00,
2013-06-17 07:01:00,-999.0,-99.9,29.98,North,-999,-999.0,-999.0,-999,-99.99,,,0.00,weatherlink.com 1.10,2013-06-17 11:01:00,
2013-06-17 07:16:00,-999.0,-99.9,29.98,North,-999,-999.0,-999.0,-999,-99.99,,,0.00,weatherlink.com 1.10,2013-06-17 11:16:00,
2013-06-17 07:32:00,-999.0,-99.9,29.99,North,-999,-999.0,-999.0,-999,-99.99,,,0.00,weatherlink.com 1.10,2013-06-17 11:32:00,
2013-06-17 07:47:00,76.6,75.0,29.99,WSW,242,0.0,-999.0,96,-99.99,,,0.00,weatherlink.com 1.10,2013-06-17 11:47:00,
2013-06-17 08:02:00,76.8,75.0,29.99,SSW,205,0.0,-999.0,95,-99.99,,,0.00,weatherlink.com 1.10,2013-06-17 12:02:00,
2013-06-17 08:17:00,77.0,76.0,30.00,WSW,258,2.0,-999.0,95,-99.99,,,0.00,weatherlink.com 1.10,2013-06-17 12:17:00,
2013-06-17 08:34:00,77.3,76.0,30.00,SW,223,3.0,-999.0,95,-99.99,,,0.00,weatherlink.com 1.10,2013-06-17 12:34:00,
2013-06-17 08:50:00,77.6,76.0,30.00,West,267,2.0,-999.0,95,-99.99,,,0.00,weatherlink.com 1.10,2013-06-17 12:50:00,
2013-06-17 09:07:00,77.9,76.0,30.00,West,279,4.0,-999.0,95,-99.99,,,0.00,weatherlink.com 1.10,2013-06-17 13:07:00,
2013-06-17 09:23:00,78.2,76.0,30.00,West,265,4.0,-999.0,94,-99.99,,,0.00,weatherlink.com 1.10,2013-06-17 13:23:00,
2013-06-17 09:40:00,79.2,77.0,30.00,West,265,2.0,-999.0,93,-99.99,,,0.00,weatherlink.com 1.10,2013-06-17 13:40:00,
2013-06-17 09:56:00,80.0,77.0,30.00,WSW,254,2.0,-999.0,91,-99.99,,,0.00,weatherlink.com 1.10,2013-06-17 13:56:00,
2013-06-17 10:13:00,81.3,78.0,29.99,West,262,2.0,-999.0,88,-99.99,,,0.00,weatherlink.com 1.10,2013-06-17 14:13:00,
2013-06-17 10:29:00,82.5,78.0,29.99,West,281,2.0,-999.0,86,-99.99,,,0.00,weatherlink.com 1.10,2013-06-17 14:29:00,
2013-06-17 10:45:00,83.5,78.0,30.00,WNW,284,6.0,-999.0,84,-99.99,,,0.00,weatherlink.com 1.10,2013-06-17 14:45:00,
2013-06-17 11:03:00,84.5,79.0,29.99,NW,308,2.0,-999.0,84,-99.99,,,0.00,weatherlink.com 1.10,2013-06-17 15:03:00,
2013-06-17 11:19:00,86.5,79.0,30.00,WNW,293,1.0,-999.0,78,-99.99,,,0.00,weatherlink.com 1.10,2013-06-17 15:19:00,
2013-06-17 11:35:00,86.5,79.0,30.00,WNW,286,4.0,-999.0,77,-99.99,,,0.00,weatherlink.com 1.10,2013-06-17 15:35:00,
2013-06-17 11:52:00,87.0,79.0,30.00,NNW,331,1.0,-999.0,77,-99.99,,,0.00,weatherlink.com 1.10,2013-06-17 15:52:00,
2013-06-17 12:08:00,87.8,79.0,29.99,West,261,4.0,-999.0,75,-99.99,,,0.00,weatherlink.com 1.10,2013-06-17 16:08:00,
2013-06-17 12:24:00,87.7,79.0,29.99,West,271,2.0,-999.0,74,-99.99,,,0.00,weatherlink.com 1.10,2013-06-17 16:24:00,
2013-06-17 12:41:00,85.9,77.0,29.99,SSE,151,4.0,-999.0,74,-99.99,,,0.00,weatherlink.com 1.10,2013-06-17 16:41:00,
2013-06-17 12:57:00,83.4,74.0,29.99,SSE,149,2.0,-999.0,74,-99.99,,,0.00,weatherlink.com 1.10,2013-06-17 16:57:00,
2013-06-17 13:14:00,83.9,74.0,29.99,ESE,113,4.0,-999.0,72,-99.99,,,0.00,weatherlink.com 1.10,2013-06-17 17:14:00,
2013-06-17 13:30:00,84.7,73.0,29.99,SSW,210,1.0,-999.0,69,-99.99,,,0.00,weatherlink.com 1.10,2013-06-17 17:30:00,
2013-06-17 13:46:00,85.5,76.0,29.99,SSE,168,4.0,-999.0,72,-99.99,,,0.00,weatherlink.com 1.10,2013-06-17 17:46:00,
2013-06-17 14:04:00,85.6,75.0,29.99,SSE,157,6.0,-999.0,70,-99.99,,,0.00,weatherlink.com 1.10,2013-06-17 18:04:00,
2013-06-17 14:20:00,83.3,75.0,30.00,SW,229,5.0,-999.0,76,-99.99,,,0.00,weatherlink.com 1.10,2013-06-17 18:20:00,
2013-06-17 14:36:00,81.7,75.0,30.00,WSW,244,3.0,-999.0,79,-99.99,,,0.00,weatherlink.com 1.10,2013-06-17 18:36:00,
2013-06-17 14:53:00,79.8,75.0,30.00,WSW,258,5.0,-999.0,85,-99.99,,,0.00,weatherlink.com 1.10,2013-06-17 18:53:00,
2013-06-17 15:09:00,78.7,75.0,29.97,SW,231,1.0,-999.0,88,-99.99,,,0.00,weatherlink.com 1.10,2013-06-17 19:09:00,
2013-06-17 15:25:00,79.4,76.0,29.97,SW,219,0.0,-999.0,88,-99.99,,,0.00,weatherlink.com 1.10,2013-06-17 19:25:00,
2013-06-17 15:42:00,80.8,77.0,29.97,SSW,193,2.0,-999.0,88,-99.99,,,0.00,weatherlink.com 1.10,2013-06-17 19:42:00,
2013-06-17 15:58:00,81.1,76.0,29.97,SE,144,1.0,-999.0,85,-99.99,,,0.00,weatherlink.com 1.10,2013-06-17 19:58:00,
2013-06-17 16:15:00,82.1,76.0,29.96,SSE,154,1.0,-999.0,82,-99.99,,,0.00,weatherlink.com 1.10,2013-06-17 20:15:00,
2013-06-17 16:31:00,83.8,77.0,29.94,South,183,3.0,-999.0,81,-99.99,,,0.00,weatherlink.com 1.10,2013-06-17 20:31:00,
2013-06-17 16:47:00,87.3,77.0,29.94,South,184,3.0,-999.0,71,-99.99,,,0.00,weatherlink.com 1.10,2013-06-17 20:47:00,
2013-06-17 17:04:00,89.7,77.0,29.93,South,176,0.0,-999.0,66,-99.99,,,0.00,weatherlink.com 1.10,2013-06-17 21:04:00,
2013-06-17 17:20:00,90.1,77.0,29.92,South,174,4.0,-999.0,65,-99.99,,,0.00,weatherlink.com 1.10,2013-06-17 21:20:00,
2013-06-17 17:36:00,90.5,76.0,29.93,SW,232,0.0,-999.0,63,-99.99,,,0.00,weatherlink.com 1.10,2013-06-17 21:36:00,
2013-06-17 17:51:00,91.6,76.0,29.92,South,178,0.0,-999.0,61,-99.99,,,0.00,weatherlink.com 1.10,2013-06-17 21:51:00,
2013-06-17 18:06:00,90.2,75.0,29.93,SSW,200,0.0,-999.0,62,-99.99,,,0.00,weatherlink.com 1.10,2013-06-17 22:06:00,
2013-06-17 18:21:00,89.3,76.0,29.93,SW,223,0.0,-999.0,64,-99.99,,,0.00,weatherlink.com 1.10,2013-06-17 22:21:00,
2013-06-17 18:36:00,88.3,76.0,29.93,South,188,1.0,-999.0,67,-99.99,,,0.00,weatherlink.com 1.10,2013-06-17 22:36:00,
2013-06-17 18:51:00,87.6,76.0,29.93,South,183,0.0,-999.0,69,-99.99,,,0.00,weatherlink.com 1.10,2013-06-17 22:51:00,
2013-06-17 19:05:00,87.0,76.0,29.92,SSE,162,6.0,-999.0,70,-99.99,,,0.00,weatherlink.com 1.10,2013-06-17 23:05:00,
2013-06-17 19:20:00,86.3,76.0,29.93,South,180,1.0,-999.0,71,-99.99,,,0.00,weatherlink.com 1.10,2013-06-17 23:20:00,
2013-06-17 19:35:00,85.2,78.0,29.93,South,171,5.0,-999.0,79,-99.99,,,0.00,weatherlink.com 1.10,2013-06-17 23:35:00,
2013-06-17 19:50:00,83.8,78.0,29.94,SSE,165,8.0,-999.0,82,-99.99,,,0.00,weatherlink.com 1.10,2013-06-17 23:50:00,
2013-06-17 20:06:00,83.0,77.0,29.94,SE,142,4.0,-999.0,83,-99.99,,,0.00,weatherlink.com 1.10,2013-06-18 00:06:00,
2013-06-17 20:21:00,81.9,77.0,29.93,ENE,65,3.0,-999.0,85,-99.99,,,0.00,weatherlink.com 1.10,2013-06-18 00:21:00,
2013-06-17 20:36:00,81.3,77.0,29.95,SSE,160,1.0,-999.0,85,-99.99,,,0.00,weatherlink.com 1.10,2013-06-18 00:36:00,
2013-06-17 20:51:00,79.4,75.0,29.98,West,274,9.0,-999.0,85,-99.99,,,0.00,weatherlink.com 1.10,2013-06-18 00:51:00,
2013-06-17 21:05:00,77.0,72.0,29.98,North,360,7.0,-999.0,84,-99.99,,,0.00,weatherlink.com 1.10,2013-06-18 01:05:00,
2013-06-17 21:20:00,74.4,71.0,30.01,NNE,24,8.0,-999.0,89,-99.99,,,0.00,weatherlink.com 1.10,2013-06-18 01:20:00,
2013-06-17 21:35:00,74.1,72.0,30.00,NNE,18,8.0,-999.0,92,-99.99,,,0.00,weatherlink.com 1.10,2013-06-18 01:35:00,
2013-06-17 21:51:00,74.1,72.0,29.99,NW,321,5.0,-999.0,93,-99.99,,,0.00,weatherlink.com 1.10,2013-06-18 01:51:00,
2013-06-17 22:06:00,74.7,73.0,29.99,East,96,1.0,-999.0,94,-99.99,,,0.00,weatherlink.com 1.10,2013-06-18 02:06:00,
2013-06-17 22:21:00,74.5,73.0,29.98,NW,313,0.0,-999.0,94,-99.99,,,0.00,weatherlink.com 1.10,2013-06-18 02:21:00,
2013-06-17 22:36:00,75.3,74.0,29.99,ESE,113,2.0,-999.0,94,-99.99,,,0.00,weatherlink.com 1.10,2013-06-18 02:36:00,
2013-06-17 22:51:00,75.5,74.0,29.99,ESE,105,4.0,-999.0,94,-99.99,,,0.00,weatherlink.com 1.10,2013-06-18 02:51:00,
2013-06-17 23:06:00,75.3,74.0,29.99,East,100,4.0,-999.0,94,-99.99,,,0.00,weatherlink.com 1.10,2013-06-18 03:06:00,
2013-06-17 23:21:00,75.3,74.0,29.98,ESE,107,0.0,-999.0,95,-99.99,,,0.00,weatherlink.com 1.10,2013-06-18 03:21:00,
2013-06-17 23:36:00,75.2,74.0,30.00,SE,127,1.0,-999.0,95,-99.99,,,0.00,weatherlink.com 1.10,2013-06-18 03:36:00,
2013-06-17 23:51:00,75.2,74.0,30.01,SE,139,2.0,-999.0,95,-99.99,,,0.00,weatherlink.com 1.10,2013-06-18 03:51:00,